Observations for STORNOWAY, United Kingdom (EGPO)

EGPO 242020Z AUTO 24004KT 9999 NCD 06/04 Q1001  
EGPO 241950Z AUTO 25007KT 9999 NCD 07/04 Q1001  
EGPO 241920Z AUTO 25009KT 9999 NCD 08/04 Q1001  
EGPO 241850Z 26012KT 9999 FEW018 SCT034 09/04 Q1001 
EGPO 241820Z 26012KT 9999 FEW018 SCT034 10/04 Q1001 
EGPO 241750Z 25010KT 9999 FEW018 SCT034 10/04 Q1001 
EGPO 241720Z 25012KT 9999 FEW018 SCT034 11/04 Q1001 
EGPO 241650Z 25012KT 9999 FEW018 SCT034 11/04 Q1001 
EGPO 241620Z 25011KT 9999 FEW018 SCT034 11/05 Q1001 
EGPO 241550Z 25014KT 9999 FEW018 SCT034 11/05 Q1001 
EGPO 241520Z 25015KT 9999 FEW018 SCT034 10/04 Q1002 
EGPO 241450Z 25014KT 9999 FEW018CB SCT034 11/04 Q1002   
EGPO 241420Z 26015KT 9999 FEW018CB SCT034 11/05 Q1002   
EGPO 241350Z 25016KT 9999 FEW018CB SCT034 11/04 Q1002   
EGPO 241250Z 25014KT 9999 VCSH FEW018CB SCT029 11/05 Q1002  
EGPO 241220Z 26016KT 9999 VCSH FEW018CB SCT029 11/05 Q1002  
EGPO 241150Z 25015KT 9999 VCSH FEW018CB BKN029 10/04 Q1002  
EGPO 241120Z 26014KT 9999 VCSH FEW018CB BKN029 10/05 Q1002  
EGPO 241050Z 26015KT 9999 -SHRA FEW018CB BKN028 11/06 Q1002 
EGPO 241020Z 25017KT 9999 VCSH FEW018CB BKN028 11/05 Q1002  
EGPO 240950Z 25018KT 9999 VCSH FEW018CB SCT025 10/05 Q1002  
EGPO 240920Z 27016KT 9999 -SHRA FEW018CB SCT025 10/05 Q1002 
EGPO 240850Z 26016KT 9999 FEW018CB SCT025 10/05 Q1002   
EGPO 240820Z 26015KT 9999 FEW012 FEW018CB SCT025 09/06 Q1002
EGPO 240750Z 26014KT 9999 FEW012 FEW018CB 09/05 Q1002   
EGPO 240720Z 25011KT 9999 VCSH FEW012 FEW018CB 08/06 Q1001  
EGPO 240650Z 26012KT 9999 VCSH FEW012 FEW018CB 08/05 Q1001  
EGPO 240620Z 26012KT 9999 VCSH FEW012 FEW018CB 07/04 Q1001  
EGPO 240550Z 26013KT 9999 VCSH FEW010 FEW018CB 06/04 Q1001  
EGPO 240520Z 26012KT 9999 VCSH FEW010 FEW018CB 06/04 Q1000  
EGPO 240450Z 26012KT 9999 VCSH FEW012 FEW018CB 06/05 Q1000  
EGPO 240420Z 25012KT 9999 FEW018CB 06/05 Q1000  
EGPO 240350Z AUTO 26015KT 9999 SCT033/// BKN047/// 07/05 Q1000  
EGPO 240320Z AUTO 26015KT 9999 FEW025/// 07/04 Q1000
EGPO 240250Z AUTO 26014KT 9999 NCD 07/05 Q1000  
EGPO 240220Z AUTO 26009KT 9999 FEW022/// SCT031/// 07/05 Q1000 RERA 
EGPO 240150Z AUTO 26016KT 9999 FEW014/// SCT020/// BKN036/// 07/05 Q1000 RERA   
EGPO 240120Z AUTO 26007KT 9999 FEW018/// SCT022/// BKN030/// 07/06 Q1000
EGPO 240050Z AUTO 27008KT 9999 -RA FEW007/// SCT017/// BKN040/// 07/05 Q1000
EGPO 240020Z AUTO 25011KT 9999 NCD 07/05 Q1000  
EGPO 232350Z AUTO 27016G26KT 9999 -RA FEW003/// SCT021/// BKN031/// 07/06 Q1000 RERA
EGPO 232320Z AUTO 25012KT 9999 FEW033/// 07/06 Q1000
EGPO 232250Z AUTO 24013KT 9999 FEW003/// SCT015/// BKN031/// 08/07 Q1000 RERA   
EGPO 232220Z AUTO 24007KT 7000 -RA SCT003/// BKN006/// BKN023/// 07/07 Q1000
EGPO 232150Z AUTO 24008KT 9999 FEW009/// SCT031/// BKN048/// 07/07 Q1000
EGPO 232120Z AUTO 25008KT 9999 -RA FEW008/// SCT033/// BKN048/// 07/07 Q1000
EGPO 232050Z AUTO 25006KT 9999 -RA OVC026/// 08/07 Q0999
EGPO 232020Z AUTO 22004KT 9999 OVC023/// 08/07 Q0999
EGPO 231950Z AUTO 23003KT 9999 OVC020/// 08/07 Q0999